createdAt,value
2019-01-31T00:01:46.260Z,99165.39
2019-01-31T00:04:55.668Z,99156.63
2019-01-31T00:08:05.554Z,99159.89
2019-01-31T00:41:11.860Z,99183.72
2019-01-31T00:44:44.204Z,99174.78
2019-01-31T00:48:04.567Z,99167.33
2019-01-31T00:51:13.317Z,99170.53
2019-01-31T00:54:30.876Z,99171.50
2019-01-31T00:57:37.923Z,99173.38
2019-01-31T01:00:22.619Z,99171.55
2019-01-31T01:03:26.364Z,99169.02
2019-01-31T01:06:35.600Z,99172.14
2019-01-31T01:09:55.089Z,99184.55
2019-01-31T01:13:13.043Z,99180.82
2019-01-31T01:16:20.844Z,99184.13
2019-01-31T01:19:35.369Z,99189.90
2019-01-31T01:22:37.633Z,99192.35
2019-01-31T01:25:43.679Z,99193.08
2019-01-31T01:28:47.596Z,99194.45
2019-01-31T01:31:34.347Z,99201.91
2019-01-31T01:34:33.878Z,99201.63
2019-01-31T01:37:37.103Z,99197.56
2019-01-31T01:40:53.296Z,99198.55
2019-01-31T01:43:59.864Z,99195.38
2019-01-31T01:46:55.860Z,99200.37
2019-01-31T01:50:10.210Z,99202.09
2019-01-31T01:53:00.320Z,99207.55
2019-01-31T01:56:16.904Z,99205.34
2019-01-31T01:59:22.569Z,99204.62
2019-01-31T02:02:46.148Z,99212.32
2019-01-31T02:06:06.446Z,99208.78
2019-01-31T02:09:08.493Z,99209.86
2019-01-31T02:12:25.640Z,99210.67
2019-01-31T02:15:32.817Z,99212.00
2019-01-31T02:18:20.132Z,99218.69
2019-01-31T02:21:19.876Z,99221.61
2019-01-31T02:24:15.114Z,99212.69
2019-01-31T02:27:25.802Z,99217.81
2019-01-31T02:30:16.467Z,99217.10
2019-01-31T02:33:18.899Z,99216.95
2019-01-31T02:36:30.609Z,99221.83
2019-01-31T02:39:42.325Z,99228.34
2019-01-31T02:42:48.196Z,99226.97
2019-01-31T02:45:48.327Z,99222.38
2019-01-31T02:48:40.296Z,99223.36
2019-01-31T02:52:02.888Z,99223.66
2019-01-31T02:55:18.802Z,99227.42
2019-01-31T02:58:11.840Z,99229.53
2019-01-31T03:01:12.656Z,99227.21
2019-01-31T03:04:03.385Z,99237.27
2019-01-31T03:07:21.952Z,99239.84
2019-01-31T03:10:30.580Z,99235.58
2019-01-31T03:13:15.381Z,99241.03
2019-01-31T03:16:27.952Z,99249.12
2019-01-31T03:19:54.030Z,99249.05
2019-01-31T03:23:02.245Z,99250.01
2019-01-31T03:25:55.643Z,99239.42
2019-01-31T03:29:12.803Z,99237.06
2019-01-31T03:32:09.575Z,99246.16
2019-01-31T03:35:12.212Z,99248.89
2019-01-31T03:38:35.692Z,99247.66
2019-01-31T03:41:47.838Z,99253.45
2019-01-31T03:44:36.034Z,99260.73
2019-01-31T03:47:29.040Z,99258.38
2019-01-31T03:50:17.436Z,99258.55
2019-01-31T03:53:24.413Z,99254.41
2019-01-31T03:56:53.501Z,99261.92
2019-01-31T03:59:31.173Z,99254.70
2019-01-31T04:02:35.850Z,99261.78
2019-01-31T04:05:12.060Z,99263.75
2019-01-31T04:07:42.111Z,99263.90
2019-01-31T04:10:19.175Z,99270.95
2019-01-31T04:12:43.864Z,99271.34
2019-01-31T04:15:14.053Z,99279.39
2019-01-31T04:17:44.018Z,99287.95
2019-01-31T04:20:14.009Z,99288.56
2019-01-31T04:22:43.987Z,99289.42
2019-01-31T04:25:13.996Z,99284.19
2019-01-31T04:27:43.981Z,99287.30
2019-01-31T04:30:15.431Z,99296.72
2019-01-31T04:32:45.415Z,99294.36
2019-01-31T04:35:15.405Z,99289.12
2019-01-31T04:37:45.382Z,99302.73
2019-01-31T04:40:15.393Z,99294.28
2019-01-31T04:42:45.357Z,99300.84
2019-01-31T04:45:15.369Z,99306.06
2019-01-31T04:47:45.345Z,99304.06
2019-01-31T04:50:15.576Z,99302.95
2019-01-31T04:52:45.575Z,99305.09
2019-01-31T04:55:15.579Z,99301.41
2019-01-31T04:57:45.601Z,99302.73
2019-01-31T05:00:17.353Z,99304.48
2019-01-31T05:02:47.336Z,99311.73
2019-01-31T05:05:17.311Z,99310.76
2019-01-31T05:07:47.334Z,99318.33
2019-01-31T05:10:17.313Z,99310.76
2019-01-31T05:12:47.307Z,99312.83
2019-01-31T05:15:17.311Z,99313.19
2019-01-31T05:17:47.306Z,99311.93
2019-01-31T05:20:18.257Z,99313.69
2019-01-31T05:22:48.241Z,99313.83
2019-01-31T05:25:18.286Z,99317.02
2019-01-31T05:27:48.260Z,99317.08
2019-01-31T05:30:18.244Z,99319.42
2019-01-31T05:32:48.273Z,99325.04
2019-01-31T05:35:18.250Z,99330.84
2019-01-31T05:37:48.289Z,99329.52
2019-01-31T05:40:18.367Z,99329.80
2019-01-31T05:42:48.346Z,99333.27
2019-01-31T05:45:18.345Z,99334.14
2019-01-31T05:47:48.347Z,99334.82
2019-01-31T05:50:19.118Z,99330.63
2019-01-31T05:52:49.113Z,99328.55
2019-01-31T05:55:19.164Z,99330.09
2019-01-31T05:57:49.157Z,99333.92
2019-01-31T06:00:24.669Z,99341.09
2019-01-31T06:02:54.639Z,99338.22
2019-01-31T06:05:24.647Z,99343.20
2019-01-31T06:07:54.610Z,99340.34
2019-01-31T06:10:24.693Z,99340.73
2019-01-31T06:12:54.657Z,99347.35
2019-01-31T06:15:24.662Z,99341.98
2019-01-31T06:17:54.632Z,99339.55
2019-01-31T06:20:25.607Z,99339.19
2019-01-31T06:22:55.551Z,99348.89
2019-01-31T06:25:25.579Z,99341.66
2019-01-31T06:27:55.543Z,99348.43
2019-01-31T06:30:25.567Z,99350.80
2019-01-31T06:32:55.574Z,99348.89
2019-01-31T06:35:25.573Z,99346.96
2019-01-31T06:37:55.581Z,99358.31
2019-01-31T06:40:25.561Z,99347.78
2019-01-31T06:42:55.602Z,99355.64
2019-01-31T06:45:25.585Z,99357.05
2019-01-31T06:47:55.693Z,99360.67
2019-01-31T06:50:25.688Z,99361.53
2019-01-31T06:52:58.186Z,99359.77
2019-01-31T06:55:27.376Z,99360.00
2019-01-31T06:57:57.369Z,99359.35
2019-01-31T07:00:27.381Z,99361.86
2019-01-31T07:02:57.370Z,99366.86
2019-01-31T07:05:27.459Z,99368.23
2019-01-31T07:07:57.482Z,99375.73
2019-01-31T07:10:27.877Z,99376.78
2019-01-31T07:12:57.864Z,99374.42
2019-01-31T07:15:27.882Z,99377.90
2019-01-31T07:17:57.924Z,99377.44
2019-01-31T07:20:27.926Z,99383.92
2019-01-31T07:22:57.946Z,99381.05
2019-01-31T07:25:28.119Z,99384.31
2019-01-31T07:27:58.225Z,99387.03
2019-01-31T07:30:28.270Z,99381.41
2019-01-31T07:32:58.298Z,99392.62
2019-01-31T07:35:28.275Z,99391.30
2019-01-31T07:37:58.286Z,99392.33
2019-01-31T07:40:28.346Z,99392.77
2019-01-31T07:42:58.350Z,99393.27
2019-01-31T07:45:30.046Z,99394.23
2019-01-31T07:48:00.090Z,99397.54
2019-01-31T07:50:30.126Z,99400.12
2019-01-31T07:53:00.208Z,99407.86
2019-01-31T07:55:30.200Z,99403.38
2019-01-31T07:58:00.223Z,99409.33
2019-01-31T08:00:30.251Z,99415.95
2019-01-31T08:03:00.295Z,99407.18
2019-01-31T08:05:30.332Z,99411.75
2019-01-31T08:08:00.368Z,99419.78
2019-01-31T08:10:33.131Z,99421.94
2019-01-31T08:13:03.208Z,99423.55
2019-01-31T08:15:34.171Z,99416.30
2019-01-31T08:18:04.887Z,99422.13
2019-01-31T08:20:34.878Z,99422.43
2019-01-31T08:23:05.281Z,99427.81
2019-01-31T08:25:35.340Z,99432.53
2019-01-31T08:28:06.583Z,99439.16
2019-01-31T08:30:38.528Z,99433.05
2019-01-31T08:33:08.796Z,99437.02
2019-01-31T08:35:38.779Z,99446.36
2019-01-31T08:38:08.784Z,99447.69
2019-01-31T08:40:38.791Z,99450.70
2019-01-31T08:43:08.796Z,99454.46
2019-01-31T08:45:38.959Z,99458.15
2019-01-31T08:48:09.049Z,99455.21
2019-01-31T08:50:39.127Z,99454.75
2019-01-31T08:53:09.216Z,99463.45
2019-01-31T08:55:39.209Z,99462.27
2019-01-31T08:58:09.940Z,99466.41
2019-01-31T09:00:40.051Z,99463.02
2019-01-31T09:03:10.130Z,99465.06
2019-01-31T09:05:40.309Z,99469.05
2019-01-31T09:08:10.312Z,99474.19
2019-01-31T09:10:40.784Z,99478.11
2019-01-31T09:13:12.310Z,99481.09
2019-01-31T09:15:42.341Z,99482.59
2019-01-31T09:18:12.332Z,99476.28
2019-01-31T09:20:52.399Z,99471.85
2019-01-31T09:24:15.367Z,99476.33
2019-01-31T09:27:32.347Z,99482.45
2019-01-31T09:30:31.567Z,99477.83
2019-01-31T09:33:30.172Z,99483.64
2019-01-31T09:36:40.699Z,99480.09
2019-01-31T09:39:44.695Z,99485.40
2019-01-31T09:42:49.085Z,99487.09
2019-01-31T09:45:58.829Z,99484.53
2019-01-31T09:49:03.875Z,99488.20
2019-01-31T09:52:03.624Z,99484.30
2019-01-31T09:55:23.363Z,99490.84
2019-01-31T09:58:30.671Z,99486.66
2019-01-31T10:01:40.441Z,99490.72
2019-01-31T10:04:51.575Z,99495.34
2019-01-31T10:07:42.715Z,99496.74
2019-01-31T10:11:05.652Z,99497.20
2019-01-31T10:14:12.810Z,99498.89
2019-01-31T10:17:19.058Z,99501.90
2019-01-31T10:20:09.663Z,99498.55
2019-01-31T10:23:10.944Z,99498.81
2019-01-31T10:26:19.215Z,99498.92
2019-01-31T10:29:23.210Z,99496.45
2019-01-31T10:32:31.826Z,99498.43
2019-01-31T10:35:52.082Z,99500.72
2019-01-31T10:38:54.896Z,99501.55
2019-01-31T10:41:57.924Z,99503.73
2019-01-31T10:45:07.717Z,99502.79
2019-01-31T10:47:58.520Z,99501.83
2019-01-31T10:51:23.596Z,99505.23
2019-01-31T10:54:16.061Z,99503.98
2019-01-31T10:57:12.165Z,99500.97
2019-01-31T11:00:20.485Z,99498.82
2019-01-31T11:03:41.168Z,99498.24
2019-01-31T11:06:40.287Z,99498.06
2019-01-31T11:09:51.589Z,99498.82
2019-01-31T11:12:35.975Z,99498.31
2019-01-31T11:15:20.464Z,99496.59
2019-01-31T11:18:12.442Z,99489.06
2019-01-31T11:21:11.908Z,99489.74
2019-01-31T11:23:53.215Z,99494.15
2019-01-31T11:26:57.921Z,99490.09
2019-01-31T11:30:15.007Z,99494.64
2019-01-31T11:33:28.164Z,99496.20
2019-01-31T11:36:54.740Z,99495.47
2019-01-31T11:39:56.200Z,99495.48
2019-01-31T11:42:57.100Z,99499.32
2019-01-31T11:46:05.045Z,99497.38
2019-01-31T11:48:58.580Z,99497.16
2019-01-31T11:52:04.254Z,99491.69
2019-01-31T11:55:20.096Z,99487.38
2019-01-31T11:58:51.445Z,99489.67
2019-01-31T12:01:21.557Z,99491.00
2019-01-31T12:03:55.192Z,99488.28
2019-01-31T12:06:25.193Z,99485.84
2019-01-31T12:08:55.450Z,99490.50
2019-01-31T12:11:25.579Z,99489.17
2019-01-31T12:13:55.700Z,99487.55
2019-01-31T12:16:25.765Z,99483.03
2019-01-31T12:18:55.745Z,99486.22
2019-01-31T12:21:25.739Z,99480.84
2019-01-31T12:23:55.737Z,99479.89
2019-01-31T12:26:25.895Z,99480.47
2019-01-31T12:28:55.879Z,99481.38
2019-01-31T12:31:25.899Z,99476.11
2019-01-31T12:33:55.885Z,99471.39
2019-01-31T12:36:25.864Z,99476.33
2019-01-31T12:38:55.908Z,99473.70
2019-01-31T12:41:25.952Z,99473.10
2019-01-31T12:43:56.056Z,99477.37
2019-01-31T12:46:26.071Z,99473.67
2019-01-31T12:48:56.143Z,99475.34
2019-01-31T12:51:26.236Z,99472.31
2019-01-31T12:53:56.218Z,99472.06
2019-01-31T12:56:26.233Z,99471.20
2019-01-31T12:58:56.216Z,99467.09
2019-01-31T13:01:26.241Z,99465.66
2019-01-31T13:03:56.261Z,99470.13
2019-01-31T13:06:36.289Z,99466.55
2019-01-31T13:09:09.446Z,99468.16
2019-01-31T13:11:39.538Z,99464.45
2019-01-31T13:14:10.025Z,99463.09
2019-01-31T13:16:40.103Z,99468.25
2019-01-31T13:19:10.718Z,99460.96
2019-01-31T13:21:40.804Z,99468.90
2019-01-31T13:24:10.803Z,99467.02
2019-01-31T13:26:40.804Z,99463.58
2019-01-31T13:29:10.807Z,99466.30
2019-01-31T13:31:40.929Z,99464.48
2019-01-31T13:34:10.961Z,99466.06
2019-01-31T13:36:41.096Z,99465.70
2019-01-31T13:39:14.702Z,99465.02
2019-01-31T13:41:44.712Z,99463.97
2019-01-31T13:44:14.660Z,99461.13
2019-01-31T13:46:44.758Z,99466.13
2019-01-31T13:49:17.792Z,99468.23
2019-01-31T13:51:46.456Z,99469.20
2019-01-31T13:54:16.514Z,99463.61
2019-01-31T13:56:46.517Z,99465.05
2019-01-31T13:59:16.538Z,99472.39
2019-01-31T14:01:46.612Z,99467.12
2019-01-31T14:04:16.663Z,99472.70
2019-01-31T14:06:46.715Z,99473.23
2019-01-31T14:09:16.687Z,99472.37
2019-01-31T14:11:50.228Z,99472.34
2019-01-31T14:14:20.278Z,99472.20
2019-01-31T14:16:50.256Z,99468.30
2019-01-31T14:19:20.274Z,99474.45
2019-01-31T14:21:50.251Z,99469.70
2019-01-31T14:24:20.258Z,99466.65
2019-01-31T14:26:50.228Z,99468.25
2019-01-31T14:29:20.248Z,99472.83
2019-01-31T14:31:50.261Z,99478.30
2019-01-31T14:34:20.281Z,99476.91
2019-01-31T14:36:50.271Z,99478.08
2019-01-31T14:39:20.446Z,99481.75
2019-01-31T14:41:50.516Z,99480.60
2019-01-31T14:44:20.931Z,99477.42
2019-01-31T14:46:50.950Z,99478.20
2019-01-31T14:49:21.046Z,99479.88
2019-01-31T14:51:51.105Z,99482.33
2019-01-31T14:54:21.166Z,99485.99
2019-01-31T14:56:51.128Z,99479.47
2019-01-31T14:59:21.132Z,99475.34
2019-01-31T15:01:51.114Z,99476.31
2019-01-31T15:04:21.108Z,99471.73
2019-01-31T15:06:51.118Z,99477.87
2019-01-31T15:09:21.106Z,99476.13
2019-01-31T15:11:51.116Z,99472.88
2019-01-31T15:14:31.242Z,99478.69
2019-01-31T15:16:53.218Z,99477.52
2019-01-31T15:19:23.303Z,99479.08
2019-01-31T15:21:53.385Z,99477.46
2019-01-31T15:24:23.873Z,99475.78
2019-01-31T15:26:53.846Z,99477.17
2019-01-31T15:29:23.822Z,99478.83
2019-01-31T15:31:56.911Z,99474.39
2019-01-31T15:34:26.884Z,99475.09
2019-01-31T15:36:57.806Z,99474.11
2019-01-31T15:39:27.819Z,99481.31
2019-01-31T15:41:57.836Z,99482.02
2019-01-31T15:44:27.812Z,99476.22
2019-01-31T15:46:57.823Z,99482.62
2019-01-31T15:49:27.869Z,99482.66
2019-01-31T15:51:57.900Z,99478.90
2019-01-31T15:54:27.953Z,99480.93
2019-01-31T15:56:58.016Z,99479.67
2019-01-31T15:59:28.348Z,99478.88
2019-01-31T16:01:58.350Z,99484.63
2019-01-31T16:04:28.376Z,99482.20
2019-01-31T16:06:58.363Z,99480.64
2019-01-31T16:09:28.390Z,99478.41
2019-01-31T16:11:59.786Z,99491.89
2019-01-31T16:14:30.401Z,99483.66
2019-01-31T16:17:00.380Z,99486.19
2019-01-31T16:19:30.411Z,99489.63
2019-01-31T16:22:00.688Z,99492.45
2019-01-31T16:24:31.223Z,99490.52
2019-01-31T16:27:01.550Z,99494.56
2019-01-31T16:29:32.615Z,99492.05
2019-01-31T16:32:02.686Z,99492.59
2019-01-31T16:34:32.703Z,99499.79
2019-01-31T16:37:02.721Z,99492.13
2019-01-31T16:39:32.689Z,99494.20
2019-01-31T16:42:02.720Z,99498.41
2019-01-31T16:44:32.730Z,99502.04
2019-01-31T16:47:03.068Z,99508.39
2019-01-31T16:49:33.032Z,99508.53
2019-01-31T16:52:03.153Z,99505.67
2019-01-31T16:54:33.142Z,99508.17
2019-01-31T16:57:03.141Z,99510.98
2019-01-31T16:59:33.132Z,99504.87
2019-01-31T17:02:03.838Z,99508.53
2019-01-31T17:04:34.461Z,99508.10
2019-01-31T17:07:04.553Z,99510.68
2019-01-31T17:09:34.629Z,99512.15
2019-01-31T17:12:04.689Z,99510.91
2019-01-31T17:14:37.810Z,99509.71
2019-01-31T17:17:07.790Z,99515.75
2019-01-31T17:19:37.808Z,99505.15
2019-01-31T17:22:07.967Z,99506.23
2019-01-31T17:24:37.990Z,99503.91
2019-01-31T17:27:08.027Z,99503.52
2019-01-31T17:29:38.071Z,99504.70
2019-01-31T17:32:08.204Z,99509.27
2019-01-31T17:34:38.245Z,99507.95
2019-01-31T17:37:08.249Z,99508.77
2019-01-31T17:39:38.281Z,99509.71
2019-01-31T17:42:08.303Z,99503.75
2019-01-31T17:44:41.967Z,99502.72
2019-01-31T17:47:11.967Z,99504.59
2019-01-31T17:49:42.601Z,99507.27
2019-01-31T17:52:12.628Z,99504.34
2019-01-31T17:54:42.718Z,99504.09
2019-01-31T17:57:15.636Z,99503.27
2019-01-31T17:59:45.644Z,99503.22
2019-01-31T18:02:25.915Z,99504.50
2019-01-31T18:04:55.925Z,99504.31
2019-01-31T18:07:27.552Z,99508.61
2019-01-31T18:09:57.651Z,99509.14
2019-01-31T18:12:27.728Z,99505.53
2019-01-31T18:14:57.775Z,99503.31
2019-01-31T18:17:28.449Z,99510.52
2019-01-31T18:19:58.494Z,99501.69
2019-01-31T18:22:33.803Z,99500.97
2019-01-31T18:25:10.589Z,99500.89
2019-01-31T18:27:42.810Z,99500.06
2019-01-31T18:30:18.826Z,99495.20
2019-01-31T18:33:02.525Z,99492.71
2019-01-31T18:35:32.530Z,99483.14
2019-01-31T18:38:05.495Z,99487.58
2019-01-31T18:40:35.558Z,99484.67
2019-01-31T18:43:09.655Z,99480.52
2019-01-31T18:45:39.587Z,99481.52
2019-01-31T18:48:11.292Z,99486.91
2019-01-31T18:50:42.596Z,99490.30
2019-01-31T18:53:16.761Z,99477.52
2019-01-31T18:55:46.771Z,99474.83
2019-01-31T18:58:17.281Z,99470.65
2019-01-31T19:00:49.125Z,99470.23
2019-01-31T19:03:22.986Z,99468.88
2019-01-31T19:05:56.768Z,99465.14
2019-01-31T19:08:27.634Z,99465.15
2019-01-31T19:10:57.647Z,99469.61
2019-01-31T19:13:27.691Z,99473.66
2019-01-31T19:16:04.738Z,99471.52
2019-01-31T19:18:29.516Z,99472.72
2019-01-31T19:20:59.512Z,99472.09
2019-01-31T19:23:29.574Z,99471.02
2019-01-31T19:25:59.611Z,99472.97
2019-01-31T19:28:29.627Z,99475.83
2019-01-31T19:30:59.645Z,99473.66
2019-01-31T19:33:29.712Z,99480.73
2019-01-31T19:35:59.722Z,99483.25
2019-01-31T19:38:29.809Z,99482.51
2019-01-31T19:40:59.830Z,99477.39
2019-01-31T19:43:29.829Z,99475.03
2019-01-31T19:46:00.064Z,99476.06
2019-01-31T19:48:30.087Z,99472.05
2019-01-31T19:51:00.116Z,99471.64
2019-01-31T19:53:30.139Z,99469.04
2019-01-31T19:56:03.198Z,99464.86
2019-01-31T19:58:33.205Z,99460.14
2019-01-31T20:01:03.240Z,99462.20
2019-01-31T20:03:33.311Z,99459.52
2019-01-31T20:06:04.177Z,99465.81
2019-01-31T20:08:34.193Z,99464.32
2019-01-31T20:11:04.779Z,99466.77
2019-01-31T20:13:34.788Z,99469.23
2019-01-31T20:16:04.823Z,99468.30
2019-01-31T20:18:34.854Z,99462.74
2019-01-31T20:21:05.577Z,99469.13
2019-01-31T20:23:35.572Z,99468.50
2019-01-31T20:26:05.923Z,99466.67
2019-01-31T20:28:35.919Z,99462.88
2019-01-31T20:31:05.942Z,99468.95
2019-01-31T20:33:36.032Z,99456.59
2019-01-31T20:36:06.150Z,99467.50
2019-01-31T20:38:36.188Z,99464.62
2019-01-31T20:41:06.199Z,99463.48
2019-01-31T20:43:36.225Z,99463.68
2019-01-31T20:46:06.408Z,99469.14
2019-01-31T20:48:36.436Z,99470.31
2019-01-31T20:51:06.469Z,99465.44
2019-01-31T20:53:36.544Z,99475.98
2019-01-31T20:56:06.615Z,99471.36
2019-01-31T20:58:36.751Z,99468.71
2019-01-31T21:01:06.747Z,99468.30
2019-01-31T21:03:36.765Z,99470.27
2019-01-31T21:06:06.824Z,99464.41
2019-01-31T21:08:36.852Z,99462.75
2019-01-31T21:11:07.732Z,99463.69
2019-01-31T21:13:37.831Z,99467.33
2019-01-31T21:16:07.854Z,99473.97
2019-01-31T21:18:39.387Z,99467.86
2019-01-31T21:21:09.418Z,99473.41
2019-01-31T21:23:39.417Z,99475.68
2019-01-31T21:26:09.450Z,99464.50
2019-01-31T21:28:39.477Z,99472.59
2019-01-31T21:31:09.569Z,99463.19
2019-01-31T21:33:39.612Z,99463.45
2019-01-31T21:36:09.670Z,99462.45
2019-01-31T21:38:39.827Z,99464.50
2019-01-31T21:41:09.858Z,99461.59
2019-01-31T21:43:39.981Z,99459.00
2019-01-31T21:46:10.005Z,99446.96
2019-01-31T21:48:40.045Z,99445.99
2019-01-31T21:51:10.035Z,99448.31
2019-01-31T21:53:40.058Z,99451.17
2019-01-31T21:56:10.108Z,99449.73
2019-01-31T21:58:40.161Z,99447.99
2019-01-31T22:01:10.262Z,99444.28
2019-01-31T22:03:40.321Z,99446.81
2019-01-31T22:06:21.968Z,99448.81
2019-01-31T22:08:42.055Z,99448.37
2019-01-31T22:11:12.022Z,99446.17
2019-01-31T22:13:42.013Z,99436.23
2019-01-31T22:16:12.019Z,99437.39
2019-01-31T22:18:42.047Z,99433.33
2019-01-31T22:21:12.113Z,99428.05
2019-01-31T22:23:42.189Z,99434.59
2019-01-31T22:26:12.232Z,99424.89
2019-01-31T22:28:42.280Z,99429.89
2019-01-31T22:31:12.269Z,99429.30
2019-01-31T22:33:42.271Z,99428.34
2019-01-31T22:36:12.287Z,99429.09
2019-01-31T22:38:45.410Z,99432.44
2019-01-31T22:41:14.053Z,99429.23
2019-01-31T22:43:44.049Z,99429.27
2019-01-31T22:46:14.127Z,99425.42
2019-01-31T22:48:44.179Z,99425.52
2019-01-31T22:51:14.171Z,99432.00
2019-01-31T22:53:44.222Z,99434.27
2019-01-31T22:56:14.233Z,99430.87
2019-01-31T22:58:44.263Z,99433.88
2019-01-31T23:01:36.971Z,99440.84
2019-01-31T23:04:07.264Z,99431.91
2019-01-31T23:06:37.231Z,99429.36
2019-01-31T23:09:10.393Z,99429.25
2019-01-31T23:11:40.468Z,99427.30
2019-01-31T23:14:10.462Z,99427.50
2019-01-31T23:16:40.466Z,99423.91
2019-01-31T23:19:10.709Z,99419.85
2019-01-31T23:21:40.708Z,99416.95
2019-01-31T23:24:12.823Z,99414.21
2019-01-31T23:26:55.651Z,99410.42
2019-01-31T23:29:31.290Z,99398.66
2019-01-31T23:32:08.517Z,99398.66
2019-01-31T23:34:46.328Z,99398.17
2019-01-31T23:37:23.248Z,99396.34
2019-01-31T23:40:05.681Z,99399.78
2019-01-31T23:42:42.228Z,99397.52
2019-01-31T23:45:18.888Z,99394.79
2019-01-31T23:48:03.729Z,99392.19
2019-01-31T23:50:39.153Z,99392.31
2019-01-31T23:53:09.525Z,99391.76
2019-01-31T23:55:39.577Z,99389.17
2019-01-31T23:58:09.603Z,99385.55
